Time;durP1;ratioP1;P1;durP2;ratioP2;P2;SDS_P1;SDS_P2;PMS_P1;PMS_P2;Temp;Humidity;BMP_temperature;BMP_pressure;BME280_temperature;BME280_humidity;BME280_pressure;Samples;Min_cycle;Max_cycle;Signal;HPM_P1;HPM_P2
2023/04/18 00:01:55;;;;;;;45.13;19.95;;;1.60;99.90;;;-0.03;100.00;102583.63;4973735;28;20497;-81
2023/04/18 00:04:21;;;;;;;60.75;24.92;;;1.60;99.90;;;0.02;100.00;102578.56;4991712;28;20042;-82
2023/04/18 00:06:52;;;;;;;59.45;24.80;;;1.70;99.90;;;0.08;100.00;102589.09;4976372;28;20129;-82
2023/04/18 00:09:17;;;;;;;79.20;26.83;;;1.70;99.90;;;0.12;100.00;102596.09;4980851;28;20065;-81
2023/04/18 00:11:44;;;;;;;69.57;28.73;;;1.80;99.90;;;0.17;100.00;102581.56;4970582;28;20109;-82
2023/04/18 00:14:10;;;;;;;73.95;29.98;;;1.80;99.90;;;0.26;100.00;102588.72;4990958;28;20054;-81
2023/04/18 00:16:37;;;;;;;65.35;28.58;;;1.90;99.90;;;0.31;100.00;102581.06;4973478;28;20025;-82
2023/04/18 00:19:11;;;;;;;84.32;29.80;;;1.90;99.90;;;0.34;100.00;102587.16;4964998;28;20112;-82
2023/04/18 00:21:43;;;;;;;86.70;31.38;;;1.90;99.90;;;0.34;100.00;102586.28;4976035;28;20111;-82
2023/04/18 00:24:12;;;;;;;85.53;30.02;;;1.90;99.90;;;0.34;100.00;102581.97;4982677;28;20100;-81
2023/04/18 00:26:37;;;;;;;88.95;33.15;;;2.00;99.90;;;0.36;100.00;102585.50;5016041;28;20029;-81
2023/04/18 00:29:06;;;;;;;100.68;35.33;;;2.00;99.90;;;0.39;100.00;102592.50;5016461;28;20033;-83
2023/04/18 00:31:32;;;;;;;85.95;33.65;;;2.00;99.90;;;0.46;100.00;102593.53;4939423;28;20060;-82
2023/04/18 00:34:05;;;;;;;84.88;33.00;;;2.00;99.90;;;0.54;100.00;102600.66;4992960;28;20064;-82
2023/04/18 00:36:31;;;;;;;83.38;34.30;;;2.20;99.90;;;0.68;100.00;102598.38;4970420;28;20607;-82
2023/04/18 00:38:57;;;;;;;79.63;32.55;;;2.20;99.90;;;0.77;100.00;102606.38;4963943;28;20113;-82
2023/04/18 00:41:34;;;;;;;76.13;32.22;;;2.30;99.90;;;0.88;100.00;102610.94;4964393;28;20091;-83
2023/04/18 00:44:00;;;;;;;74.72;31.92;;;2.50;99.90;;;1.08;100.00;102601.03;4955759;28;20041;-81
2023/04/18 00:46:26;;;;;;;60.83;25.38;;;2.70;99.90;;;1.33;100.00;102607.63;4965626;28;20159;-81
2023/04/18 00:48:52;;;;;;;64.60;26.73;;;2.90;99.90;;;1.54;100.00;102602.03;4967854;28;20061;-82
2023/04/18 00:51:20;;;;;;;48.92;21.98;;;3.10;99.90;;;1.73;100.00;102601.56;4983685;28;20049;-80
2023/04/18 00:53:50;;;;;;;53.97;25.10;;;3.30;99.90;;;1.93;100.00;102603.69;4969668;28;20033;-82
2023/04/18 00:56:16;;;;;;;63.28;26.30;;;3.50;99.90;;;2.10;100.00;102597.06;4988679;28;20132;-81
2023/04/18 00:58:42;;;;;;;51.88;25.45;;;3.60;99.90;;;2.26;100.00;102598.22;4952625;28;20405;-81
2023/04/18 01:01:08;;;;;;;59.95;25.45;;;3.80;99.90;;;2.39;100.00;102600.19;4975294;28;20036;-81
2023/04/18 01:03:39;;;;;;;54.63;27.08;;;3.90;99.90;;;2.48;100.00;102596.84;5031407;28;20044;-82
2023/04/18 01:06:05;;;;;;;49.67;25.73;;;4.00;99.90;;;2.57;100.00;102598.72;4990945;28;20089;-81
2023/04/18 01:08:31;;;;;;;59.65;27.45;;;4.10;99.90;;;2.65;100.00;102605.81;4992714;28;20038;-82
2023/04/18 01:10:57;;;;;;;63.55;27.08;;;4.20;99.90;;;2.76;100.00;102605.13;4965155;28;20026;-81
2023/04/18 01:13:23;;;;;;;63.83;29.13;;;4.30;99.90;;;2.85;100.00;102613.94;4993387;28;20432;-82
2023/04/18 01:15:57;;;;;;;59.67;28.58;;;4.40;99.90;;;2.92;100.00;102617.53;4948446;28;20040;-80
2023/04/18 01:18:24;;;;;;;65.75;30.25;;;4.50;99.90;;;2.99;100.00;102606.34;4972950;28;20039;-80
2023/04/18 01:20:52;;;;;;;65.18;28.55;;;4.50;99.90;;;3.03;100.00;102605.53;4985303;28;20136;-81
2023/04/18 01:23:26;;;;;;;62.03;27.25;;;4.50;99.90;;;3.11;100.00;102612.56;4994510;28;20049;-81
2023/04/18 01:25:52;;;;;;;49.17;24.27;;;4.60;99.90;;;3.08;100.00;102608.22;4931145;28;20046;-82
2023/04/18 01:28:29;;;;;;;50.75;26.17;;;4.70;99.90;;;3.15;100.00;102598.75;4975691;28;22958;-81
2023/04/18 01:30:55;;;;;;;55.05;26.38;;;4.60;99.90;;;3.17;100.00;102608.34;4953201;28;20034;-81
2023/04/18 01:33:21;;;;;;;53.40;25.98;;;4.70;99.90;;;3.14;100.00;102597.88;4963931;28;20163;-80
2023/04/18 01:35:48;;;;;;;56.83;24.02;;;4.60;99.90;;;3.05;100.00;102598.63;4920657;28;20127;-80
2023/04/18 01:38:21;;;;;;;49.95;24.27;;;4.60;99.90;;;3.12;100.00;102596.13;4980780;28;20072;-81
2023/04/18 01:40:48;;;;;;;46.10;21.95;;;4.60;99.90;;;3.13;100.00;102600.47;4959525;28;20037;-81
2023/04/18 01:43:13;;;;;;;40.95;18.58;;;4.60;99.90;;;3.10;100.00;102590.88;4963159;28;20037;-81
2023/04/18 01:45:40;;;;;;;57.33;23.70;;;4.70;99.90;;;3.14;100.00;102604.84;4982381;28;20028;-81
2023/04/18 01:48:14;;;;;;;47.17;22.75;;;4.70;99.90;;;3.22;100.00;102598.88;4997450;28;20044;-80
2023/04/18 01:50:40;;;;;;;52.78;21.63;;;4.70;99.90;;;3.19;100.00;102595.34;4952788;28;20034;-82
2023/04/18 01:53:06;;;;;;;58.97;22.55;;;4.70;99.90;;;3.28;100.00;102601.56;4973440;28;20116;-81
2023/04/18 01:55:32;;;;;;;58.85;24.50;;;4.80;99.90;;;3.34;100.00;102590.34;5014614;28;20060;-81
2023/04/18 01:58:05;;;;;;;47.63;23.58;;;4.80;99.90;;;3.39;100.00;102598.22;4979907;28;20039;-81
2023/04/18 02:00:31;;;;;;;56.50;23.40;;;4.80;99.90;;;3.36;100.00;102599.06;4982748;28;20034;-81
2023/04/18 02:02:59;;;;;;;50.47;24.02;;;4.90;99.90;;;3.42;100.00;102593.94;5013738;28;20043;-81
2023/04/18 02:05:30;;;;;;;65.07;24.38;;;4.70;99.90;;;3.45;100.00;102583.53;4951552;28;20108;-81
2023/04/18 02:07:56;;;;;;;57.70;24.05;;;4.90;99.90;;;3.45;100.00;102583.53;4968257;28;20036;-80
2023/04/18 02:10:22;;;;;;;50.90;22.92;;;4.90;99.90;;;3.45;100.00;102586.13;5003989;28;20127;-81
2023/04/18 02:12:48;;;;;;;54.03;23.92;;;4.90;99.90;;;3.48;100.00;102583.59;4954144;28;20036;-81
2023/04/18 02:15:14;;;;;;;52.03;22.10;;;4.90;99.90;;;3.47;100.00;102586.16;4980960;28;20616;-82
2023/04/18 02:17:40;;;;;;;57.47;24.30;;;5.00;99.90;;;3.52;100.00;102583.63;4949880;28;20159;-82
2023/04/18 02:20:12;;;;;;;53.78;24.23;;;5.00;99.90;;;3.52;100.00;102589.72;4944040;28;20034;-81
2023/04/18 02:22:38;;;;;;;62.83;24.55;;;4.90;99.90;;;3.52;100.00;102584.50;4960114;28;20055;-81
2023/04/18 02:25:04;;;;;;;54.60;22.88;;;;;;;3.49;100.00;102580.13;4988535;28;20485;-82
2023/04/18 02:27:30;;;;;;;57.22;23.33;;;5.00;99.90;;;3.49;100.00;102574.03;4989603;28;20067;-81
2023/04/18 02:29:56;;;;;;;41.75;20.92;;;4.90;99.90;;;3.50;100.00;102575.81;4978102;28;20067;-81
2023/04/18 02:32:31;;;;;;;54.00;22.52;;;5.20;99.90;;;3.45;100.00;102575.72;4985189;28;20036;-82
2023/04/18 02:34:57;;;;;;;55.75;21.40;;;4.90;99.90;;;3.43;100.00;102571.34;4971822;28;20041;-81
2023/04/18 02:37:23;;;;;;;51.88;21.52;;;4.90;99.90;;;3.42;100.00;102567.00;4972247;28;20661;-81
2023/04/18 02:39:59;;;;;;;62.05;23.20;;;4.80;99.90;;;3.40;100.00;102564.38;5005993;28;20076;-80
2023/04/18 02:42:24;;;;;;;57.65;22.17;;;4.80;99.90;;;3.39;100.00;102572.16;4975636;28;20041;-82
2023/04/18 02:44:50;;;;;;;52.78;23.90;;;4.90;99.90;;;3.39;100.00;102572.16;4974852;28;20045;-81
2023/04/18 02:47:16;;;;;;;57.55;23.88;;;4.80;99.90;;;3.39;100.00;102580.88;4941948;28;20577;-81
2023/04/18 02:49:51;;;;;;;51.22;23.58;;;4.90;99.90;;;3.41;100.00;102570.47;4983432;28;20031;-82
2023/04/18 02:52:17;;;;;;;62.80;23.65;;;4.80;99.90;;;3.35;100.00;102583.41;4961549;28;20037;-81
2023/04/18 02:54:42;;;;;;;56.70;23.20;;;4.80;99.90;;;3.38;100.00;102592.13;4983796;28;20031;-81
2023/04/18 02:57:08;;;;;;;53.70;22.83;;;4.90;99.90;;;3.41;100.00;102596.50;4966889;28;20093;-81
2023/04/18 02:59:39;;;;;;;58.35;24.65;;;4.90;99.90;;;3.42;100.00;102596.53;4969182;28;20117;-80
2023/04/18 03:02:05;;;;;;;56.60;22.02;;;4.90;99.90;;;3.44;100.00;102594.81;4969820;28;20034;-81
2023/04/18 03:04:30;;;;;;;57.90;22.90;;;4.90;99.90;;;3.42;100.00;102599.13;4978260;28;20033;-82
2023/04/18 03:06:58;;;;;;;55.97;21.92;;;4.90;99.90;;;3.53;100.00;102588.00;4946540;28;20038;-82
2023/04/18 03:09:24;;;;;;;58.08;22.23;;;5.00;99.90;;;3.53;100.00;102594.06;4950445;28;20045;-82
2023/04/18 03:11:55;;;;;;;52.35;23.10;;;5.00;99.90;;;3.58;100.00;102592.38;4987651;28;20037;-82
2023/04/18 03:14:20;;;;;;;51.65;21.83;;;5.00;99.90;;;3.58;100.00;102583.69;4979814;28;20043;-81
2023/04/18 03:16:46;;;;;;;48.80;21.67;;;5.10;99.90;;;3.63;100.00;102592.47;4947159;28;20056;-82
2023/04/18 03:19:12;;;;;;;49.97;22.23;;;5.10;99.90;;;3.68;100.00;102589.03;4938134;28;20046;-82
2023/04/18 03:21:38;;;;;;;49.08;22.08;;;5.20;99.90;;;3.73;100.00;102594.28;4962384;28;20076;-82
2023/04/18 03:24:05;;;;;;;49.90;22.38;;;5.20;99.90;;;3.78;100.00;102595.25;4991506;28;20118;-80
2023/04/18 03:26:38;;;;;;;53.80;22.73;;;5.20;99.90;;;3.82;100.00;102596.13;4926098;28;20041;-82
2023/04/18 03:29:03;;;;;;;43.28;21.25;;;5.20;99.90;;;3.84;100.00;102597.88;4962468;28;20051;-82
2023/04/18 03:31:30;;;;;;;57.63;23.05;;;5.30;99.90;;;3.86;100.00;102601.38;4976655;28;20124;-81
2023/04/18 03:33:56;;;;;;;56.15;22.17;;;5.30;99.90;;;3.93;100.00;102606.69;4996504;28;20041;-82
2023/04/18 03:36:27;;;;;;;48.05;21.50;;;5.40;99.90;;;3.95;100.00;102612.78;4962836;28;20045;-81
2023/04/18 03:38:54;;;;;;;47.28;21.27;;;5.40;99.90;;;3.93;100.00;102614.50;4983504;28;20655;-82
2023/04/18 03:41:19;;;;;;;48.67;21.02;;;5.40;99.90;;;3.97;100.00;102603.25;4979253;28;20074;-81
2023/04/18 03:43:45;;;;;;;48.00;19.15;;;5.50;99.90;;;4.00;100.00;102603.31;4985561;28;20143;-81
2023/04/18 03:46:11;;;;;;;52.03;19.83;;;5.50;99.90;;;4.00;100.00;102608.50;4960650;28;20101;-82
2023/04/18 03:48:37;;;;;;;38.40;18.27;;;5.50;99.90;;;4.02;100.00;102604.19;4982676;28;20411;-81
2023/04/18 03:51:10;;;;;;;38.70;19.27;;;5.50;99.90;;;4.07;100.00;102600.75;5006450;28;20041;-83
2023/04/18 03:53:36;;;;;;;48.05;20.77;;;5.60;99.90;;;4.09;100.00;102599.03;5003197;28;20048;-81
2023/04/18 03:56:02;;;;;;;47.80;19.38;;;5.60;99.90;;;4.18;100.00;102605.22;4984324;28;20473;-82
2023/04/18 03:58:28;;;;;;;43.90;17.52;;;5.70;99.90;;;4.23;100.00;102599.19;4973766;28;20131;-81
2023/04/18 04:01:05;;;;;;;36.80;16.75;;;5.70;99.90;;;4.22;100.00;102597.44;4967684;28;20045;-82
2023/04/18 04:03:31;;;;;;;37.72;15.32;;;5.70;99.90;;;4.15;100.00;102600.84;4955195;28;21494;-81
2023/04/18 04:05:57;;;;;;;32.30;15.07;;;5.70;99.90;;;4.16;100.00;102599.97;4948096;28;20048;-81
2023/04/18 04:08:28;;;;;;;32.88;15.00;;;5.70;99.90;;;4.13;100.00;102597.34;4971400;28;20060;-82
2023/04/18 04:10:54;;;;;;;38.13;17.10;;;5.70;99.90;;;4.13;100.00;102602.56;4965203;28;20055;-81
2023/04/18 04:13:20;;;;;;;40.60;18.38;;;5.80;99.90;;;4.26;100.00;102609.66;4987926;28;20041;-82
2023/04/18 04:15:46;;;;;;;41.13;17.40;;;5.80;99.90;;;4.31;100.00;102607.94;4996555;28;20038;-81
2023/04/18 04:18:12;;;;;;;40.40;16.63;;;5.80;99.90;;;4.32;100.00;102616.66;5004718;28;20075;-81
2023/04/18 04:20:43;;;;;;;39.30;17.40;;;5.90;99.90;;;4.42;100.00;102620.22;4994448;28;20041;-81
2023/04/18 04:23:08;;;;;;;38.47;17.55;;;5.90;99.90;;;4.45;100.00;102615.91;4994675;28;20048;-81
2023/04/18 04:25:35;;;;;;;45.85;17.17;;;6.00;99.90;;;4.54;100.00;102622.94;4983682;28;20616;-82
2023/04/18 04:28:01;;;;;;;35.42;17.60;;;6.00;99.90;;;4.57;100.00;102622.97;4983499;28;20106;-82
2023/04/18 04:30:27;;;;;;;35.60;17.20;;;6.00;99.90;;;4.61;100.00;102631.69;4963695;28;20081;-82
2023/04/18 04:33:02;;;;;;;32.53;16.35;;;6.00;99.90;;;4.58;100.00;102622.13;4946253;28;20089;-82
2023/04/18 04:35:28;;;;;;;41.33;17.35;;;6.10;99.90;;;4.60;100.00;102632.53;4996894;28;20445;-81
2023/04/18 04:37:53;;;;;;;38.08;16.75;;;6.10;99.90;;;4.68;100.00;102634.34;5080607;22;20038;-79
2023/04/18 04:40:21;;;;;;;45.33;18.13;;;6.20;99.90;;;4.73;100.00;102637.03;4995391;28;20045;-78
2023/04/18 04:42:53;;;;;;;45.13;17.90;;;6.20;99.90;;;4.78;100.00;102634.44;4962431;28;20068;-79
2023/04/18 04:45:19;;;;;;;36.55;17.95;;;6.20;99.90;;;4.81;100.00;102637.94;4961120;28;20110;-80
2023/04/18 04:47:46;;;;;;;38.75;17.38;;;6.20;99.90;;;4.81;100.00;102643.16;5001968;28;20097;-78
2023/04/18 04:50:14;;;;;;;38.40;17.23;;;6.30;99.90;;;4.85;100.00;102644.06;4935380;28;20061;-78
2023/04/18 04:52:45;;;;;;;33.97;16.63;;;6.30;99.90;;;4.86;100.00;102643.19;4959140;28;20037;-79
2023/04/18 04:55:11;;;;;;;35.88;17.55;;;6.30;99.90;;;4.88;100.00;102644.97;4970035;28;20048;-80
2023/04/18 04:57:37;;;;;;;36.15;16.40;;;6.30;99.90;;;4.90;100.00;102631.91;4969499;28;20145;-79
2023/04/18 05:00:05;;;;;;;29.10;14.90;;;6.30;99.90;;;4.86;100.00;102630.13;4969538;28;20037;-78
2023/04/18 05:02:40;;;;;;;42.50;15.07;;;6.30;99.90;;;4.75;100.00;102631.81;4949263;28;20033;-79
2023/04/18 05:05:06;;;;;;;28.08;13.10;;;6.30;99.90;;;4.68;100.00;102626.53;4954872;28;20040;-78
2023/04/18 05:07:32;;;;;;;21.60;11.57;;;6.20;99.90;;;4.60;100.00;102636.06;4982821;28;20103;-79
2023/04/18 05:09:58;;;;;;;43.15;16.42;;;6.20;99.90;;;4.71;100.00;102631.78;4960773;28;20621;-78
2023/04/18 05:12:30;;;;;;;36.08;15.45;;;6.30;99.90;;;4.74;100.00;102630.94;4968942;28;20129;-79
2023/04/18 05:14:56;;;;;;;34.03;14.40;;;6.30;99.90;;;4.83;100.00;102628.38;4962268;28;20029;-78
2023/04/18 05:17:22;;;;;;;37.15;15.32;;;6.30;99.90;;;4.87;100.00;102634.53;4968108;28;20158;-79
2023/04/18 05:19:48;;;;;;;29.38;15.13;;;6.40;99.90;;;4.85;100.00;102634.50;4998449;28;20034;-78
2023/04/18 05:22:23;;;;;;;31.38;14.27;;;6.40;99.90;;;4.87;100.00;102638.00;4974540;28;20045;-79
2023/04/18 05:24:49;;;;;;;29.13;14.85;;;;;;;4.88;100.00;102646.69;4986435;28;20040;-77
2023/04/18 05:27:15;;;;;;;36.25;14.98;;;6.40;99.90;;;4.98;100.00;102645.91;4991090;28;20709;-79
2023/04/18 05:29:40;;;;;;;36.88;16.95;;;6.50;99.90;;;5.05;100.00;102639.84;4957572;28;20037;-80
2023/04/18 05:32:11;;;;;;;33.53;14.57;;;6.50;99.90;;;4.99;100.00;102638.94;4988048;28;20041;-77
2023/04/18 05:34:36;;;;;;;35.63;15.30;;;6.50;99.90;;;4.99;100.00;102637.22;4961693;28;21506;-79
2023/04/18 05:37:02;;;;;;;33.78;14.88;;;6.60;99.90;;;5.06;100.00;102633.78;4943362;28;20161;-79
2023/04/18 05:39:28;;;;;;;28.27;16.08;;;6.50;99.90;;;5.02;100.00;102641.59;4992595;28;20828;-79
2023/04/18 05:41:54;;;;;;;37.47;15.98;;;6.60;99.90;;;5.07;100.00;102647.72;4948960;28;20110;-79
2023/04/18 05:44:20;;;;;;;30.73;13.68;;;6.60;99.90;;;5.04;100.00;102635.50;4975950;28;20164;-79
2023/04/18 05:46:53;;;;;;;33.72;18.40;;;6.70;99.90;;;5.19;100.00;102639.09;4960640;28;20030;-78
2023/04/18 05:49:19;;;;;;;30.05;16.00;;;6.70;99.90;;;5.30;100.00;102643.50;4949501;28;20041;-79
2023/04/18 05:51:45;;;;;;;36.80;19.48;;;6.80;99.90;;;5.41;100.00;102634.88;4982059;28;20044;-80
2023/04/18 05:54:11;;;;;;;47.00;21.33;;;6.80;99.90;;;5.49;100.00;102647.09;4989178;28;20032;-80
2023/04/18 05:56:41;;;;;;;38.03;20.70;;;6.90;99.90;;;5.58;100.00;102645.41;4971033;28;20505;-79
2023/04/18 05:59:07;;;;;;;46.75;21.75;;;7.00;99.90;;;5.71;100.00;102648.06;4925520;28;20049;-79
2023/04/18 06:01:33;;;;;;;35.72;20.63;;;7.10;99.90;;;5.69;100.00;102651.56;4946105;28;20588;-80
2023/04/18 06:03:59;;;;;;;41.63;21.10;;;7.20;99.90;;;5.79;100.00;102650.75;4940864;28;20091;-78
2023/04/18 06:06:26;;;;;;;37.25;20.00;;;7.20;99.90;;;5.76;100.00;102648.97;4921895;28;20052;-79
2023/04/18 06:08:52;;;;;;;39.78;20.77;;;7.20;99.90;;;5.89;100.00;102654.25;4961216;28;20037;-79
2023/04/18 06:11:27;;;;;;;38.85;20.33;;;7.30;99.90;;;5.90;100.00;102658.63;4970879;28;20053;-77
2023/04/18 06:13:54;;;;;;;40.70;19.45;;;7.30;99.90;;;5.91;100.00;102657.75;4958525;28;20052;-80
2023/04/18 06:16:21;;;;;;;47.83;21.95;;;7.40;99.90;;;6.01;100.00;102658.69;4980872;28;20702;-79
2023/04/18 06:18:53;;;;;;;42.95;21.98;;;7.40;99.90;;;5.95;100.00;102667.38;4993906;28;20025;-78
2023/04/18 06:21:20;;;;;;;39.92;19.42;;;7.30;99.90;;;5.81;100.00;102671.63;4945982;28;20571;-78
2023/04/18 06:23:46;;;;;;;43.35;20.80;;;7.40;99.90;;;5.98;100.00;102663.91;4977974;28;20530;-79
2023/04/18 06:26:12;;;;;;;42.03;20.20;;;7.40;99.90;;;6.04;100.00;102661.31;4971851;28;20120;-79
2023/04/18 06:28:43;;;;;;;39.78;19.70;;;7.40;99.90;;;6.05;100.00;102666.56;4977953;22;20080;-80
2023/04/18 06:31:09;;;;;;;40.95;20.25;;;7.50;99.90;;;6.15;100.00;102673.56;4979330;28;20046;-78
2023/04/18 06:33:36;;;;;;;32.65;18.85;;;7.50;99.90;;;6.14;100.00;102674.41;5010710;28;20024;-78
2023/04/18 06:36:03;;;;;;;37.30;20.73;;;7.60;99.90;;;6.18;100.00;102671.78;4976773;28;20071;-80
2023/04/18 06:38:29;;;;;;;41.35;19.58;;;7.60;99.90;;;6.25;100.00;102676.19;4998299;28;20037;-77
2023/04/18 06:41:00;;;;;;;41.63;18.98;;;7.60;99.90;;;6.30;100.00;102677.06;4989360;28;20118;-79
2023/04/18 06:43:25;;;;;;;34.40;18.80;;;7.60;99.90;;;6.21;100.00;102675.31;4962759;28;20121;-78
2023/04/18 06:45:51;;;;;;;34.05;18.95;;;7.60;99.90;;;6.33;100.00;102682.31;4964838;28;20106;-79
2023/04/18 06:48:17;;;;;;;33.60;18.02;;;7.70;99.90;;;6.45;100.00;102692.78;4954938;28;20038;-79
2023/04/18 06:50:43;;;;;;;36.72;18.88;;;7.80;99.90;;;6.57;100.00;102698.06;4936471;28;20048;-79
2023/04/18 06:53:09;;;;;;;35.28;17.73;;;7.80;99.90;;;6.45;100.00;102692.78;4986113;28;20030;-79
2023/04/18 06:55:41;;;;;;;35.78;17.92;;;7.90;99.90;;;6.56;100.00;102704.16;4995320;28;20070;-79
2023/04/18 06:58:07;;;;;;;36.92;17.40;;;7.90;99.90;;;6.53;100.00;102695.44;4940928;28;20124;-77
2023/04/18 07:00:33;;;;;;;39.97;20.05;;;7.90;99.90;;;6.64;100.00;102696.31;4944395;28;20423;-79
2023/04/18 07:03:00;;;;;;;32.13;17.85;;;8.00;99.90;;;6.67;100.00;102693.69;4957127;28;20100;-79
2023/04/18 07:05:29;;;;;;;38.05;18.95;;;8.10;99.90;;;6.82;100.00;102694.59;4968827;28;20056;-79
2023/04/18 07:07:57;;;;;;;35.75;17.80;;;8.10;99.90;;;6.87;100.00;102690.22;4973989;28;20045;-79
2023/04/18 07:10:23;;;;;;;32.95;18.80;;;8.20;99.90;;;6.84;100.00;102701.56;4979152;28;20041;-80
2023/04/18 07:12:49;;;;;;;38.75;18.35;;;8.30;99.90;;;6.96;100.00;102696.34;4936259;28;20123;-78
2023/04/18 07:15:14;;;;;;;32.67;18.15;;;8.30;99.90;;;7.00;100.00;102707.72;4978864;28;20549;-79
2023/04/18 07:17:40;;;;;;;31.80;15.90;;;8.30;99.90;;;6.93;100.00;102700.69;4957556;28;20401;-79
2023/04/18 07:20:17;;;;;;;34.85;16.85;;;8.30;99.90;;;6.93;100.00;102704.22;4955663;28;20121;-79
2023/04/18 07:22:43;;;;;;;29.83;15.57;;;8.30;99.90;;;6.89;100.00;102702.47;4971308;28;20048;-78
2023/04/18 07:25:09;;;;;;;29.60;15.55;;;8.30;99.90;;;6.98;100.00;102697.22;4955756;28;20546;-79
2023/04/18 07:27:42;;;;;;;32.78;17.40;;;8.40;99.90;;;7.09;100.00;102699.84;4937646;28;20405;-80
2023/04/18 07:30:08;;;;;;;32.70;15.75;;;8.40;99.90;;;7.11;100.00;102699.84;4993407;28;20056;-79
2023/04/18 07:32:34;;;;;;;28.27;16.45;;;8.50;99.90;;;7.18;100.00;102706.81;4967948;28;20045;-79
2023/04/18 07:35:01;;;;;;;30.13;16.50;;;8.60;99.90;;;7.35;100.00;102710.28;4943168;28;20427;-79
2023/04/18 07:37:31;;;;;;;34.83;16.30;;;8.60;99.90;;;7.19;100.00;102709.44;4955113;28;20726;-77
2023/04/18 07:39:58;;;;;;;30.27;15.98;;;8.50;99.90;;;7.09;100.00;102710.31;4935919;28;20054;-77
2023/04/18 07:42:23;;;;;;;23.10;13.02;;;8.60;99.90;;;7.06;100.00;102709.44;4945071;28;20048;-79
2023/04/18 07:45:02;;;;;;;22.80;12.45;;;8.50;99.90;;;7.13;100.00;102714.69;4950641;28;20034;-78
2023/04/18 07:47:28;;;;;;;22.85;13.25;;;8.40;99.90;;;6.94;100.00;102715.56;4956503;28;20042;-78
2023/04/18 07:49:55;;;;;;;28.25;13.45;;;8.40;99.90;;;6.94;100.00;102728.66;4985208;28;20044;-79
2023/04/18 07:52:21;;;;;;;27.83;14.48;;;8.40;99.90;;;7.05;100.00;102715.56;4931656;28;20033;-78
2023/04/18 07:54:54;;;;;;;29.98;14.45;;;8.40;99.90;;;7.08;100.00;102713.78;4978396;28;20044;-78
2023/04/18 07:57:20;;;;;;;30.38;14.80;;;8.50;99.90;;;7.15;99.37;102722.56;4962433;28;20070;-78
2023/04/18 07:59:46;;;;;;;36.97;14.77;;;8.60;99.90;;;7.39;99.36;102724.28;4937378;28;20036;-78
2023/04/18 08:02:12;;;;;;;27.52;14.40;;;8.70;99.90;;;7.42;98.76;102726.88;4980139;28;20036;-79
2023/04/18 08:04:42;;;;;;;26.33;13.73;;;8.70;99.90;;;7.33;97.73;102726.91;4974758;28;20137;-79
2023/04/18 08:07:08;;;;;;;30.17;15.13;;;8.80;99.90;;;7.48;97.23;102734.72;4954040;28;20033;-78
2023/04/18 08:09:34;;;;;;;26.60;12.85;;;8.80;99.90;;;7.58;96.67;102733.84;5006136;28;20033;-78
2023/04/18 08:12:00;;;;;;;26.30;12.82;;;8.90;99.90;;;7.61;96.19;102740.84;4939194;28;20198;-78
2023/04/18 08:14:25;;;;;;;31.15;14.10;;;9.00;99.90;;;7.66;95.71;102735.56;4960515;28;20521;-77
2023/04/18 08:16:51;;;;;;;24.55;11.45;;;9.00;99.90;;;7.58;94.04;102733.84;4979917;28;20128;-78
2023/04/18 08:19:17;;;;;;;26.92;13.27;;;9.00;99.90;;;7.81;94.36;102730.28;4956902;28;20099;-78
2023/04/18 08:21:51;;;;;;;26.83;12.32;;;9.00;99.90;;;7.78;94.14;102732.94;4961398;28;20453;-79
2023/04/18 08:24:16;;;;;;;25.88;12.55;;;9.10;99.90;;;7.85;93.58;102741.66;4963721;28;20037;-79
2023/04/18 08:26:42;;;;;;;25.60;12.85;;;9.10;99.90;;;7.83;93.29;102744.28;4967815;28;20056;-79
2023/04/18 08:29:08;;;;;;;30.65;12.65;;;9.20;99.90;;;7.97;93.53;102741.63;5001530;28;20461;-78
2023/04/18 08:31:41;;;;;;;27.05;12.73;;;9.20;99.90;;;7.89;92.72;102741.63;4984495;28;20124;-78
2023/04/18 08:34:07;;;;;;;29.50;12.70;;;9.30;99.90;;;8.00;92.51;102744.22;4969021;28;20533;-78
2023/04/18 08:36:34;;;;;;;26.52;12.27;;;9.30;99.90;;;8.04;91.86;102737.22;4936603;28;20133;-79
2023/04/18 08:39:00;;;;;;;32.95;12.23;;;9.30;99.90;;;8.04;91.74;102737.22;4993513;28;20034;-78
2023/04/18 08:41:35;;;;;;;25.52;11.05;;;9.30;99.90;;;7.95;91.53;102733.75;4960634;28;20040;-78
2023/04/18 08:44:02;;;;;;;26.83;11.85;;;9.40;99.90;;;8.19;91.86;102745.03;4967094;28;20041;-79
2023/04/18 08:46:28;;;;;;;24.77;11.75;;;9.50;99.90;;;8.26;90.61;102746.72;4975830;28;20632;-77
2023/04/18 08:48:59;;;;;;;26.42;11.50;;;9.50;99.90;;;8.26;90.18;102738.84;4960897;28;20030;-79
2023/04/18 08:51:29;;;;;;;20.67;10.95;;;9.50;99.90;;;8.28;89.88;102742.34;4988718;28;20092;-77
2023/04/18 08:53:56;;;;;;;21.30;9.45;;;9.70;99.90;;;8.40;89.80;102746.66;4958659;28;20040;-78
2023/04/18 08:56:26;;;;;;;17.92;10.27;;;9.70;99.90;;;8.57;89.29;102749.22;4976929;28;20046;-79
2023/04/18 08:58:52;;;;;;;26.92;12.02;;;9.90;99.90;;;8.89;88.71;102753.41;4960256;28;20055;-79
2023/04/18 09:01:18;;;;;;;23.60;8.82;;;10.00;99.90;;;8.82;87.51;102761.31;4952969;28;20107;-78
2023/04/18 09:03:47;;;;;;;25.52;11.48;;;10.10;99.90;;;8.94;86.82;102754.22;4990510;28;20465;-79
2023/04/18 09:06:19;;;;;;;25.45;10.88;;;10.30;99.90;;;9.26;86.73;102759.22;4936534;28;20036;-78
2023/04/18 09:09:04;;;;;;;16.52;8.00;;;10.40;99.90;;;9.23;85.07;102756.63;4941008;28;20050;-79
2023/04/18 09:11:33;;;;;;;22.55;11.07;;;10.60;99.90;;;9.59;85.30;102750.16;4984812;28;20029;-77
2023/04/18 09:14:24;;;;;;;25.23;11.63;;;10.80;99.90;;;10.06;85.15;102756.66;4976892;28;20061;-77
2023/04/18 09:16:52;;;;;;;20.52;9.80;;;10.90;99.90;;;9.86;82.73;102748.13;4975381;28;20033;-78
2023/04/18 09:19:25;;;;;;;20.25;10.38;;;11.10;99.90;;;10.01;82.80;102760.22;4959814;28;20034;-78
2023/04/18 09:22:03;;;;;;;17.58;8.88;;;11.10;99.90;;;10.05;82.09;102761.94;4984972;28;20026;-78
2023/04/18 09:24:33;;;;;;;23.80;10.00;;;11.30;99.90;;;10.27;82.11;102760.78;4983618;28;20045;-78
2023/04/18 09:27:00;;;;;;;18.00;7.90;;;11.30;99.90;;;10.06;80.50;102767.19;4993444;28;20057;-78
2023/04/18 09:29:53;;;;;;;23.20;9.45;;;11.30;99.90;;;10.25;80.44;102745.88;4981653;28;20165;-78
2023/04/18 09:32:29;;;;;;;16.58;9.20;;;11.50;99.90;;;10.60;80.86;102768.28;4991639;28;20040;-77
2023/04/18 09:35:00;;;;;;;;;;;11.50;99.90;;;10.79;79.82;102766.25;4964999;28;20037;-79
2023/04/18 09:37:32;;;;;;;16.35;9.05;;;11.70;99.90;;;10.65;78.88;102761.19;4996341;28;19924;-78
2023/04/18 09:40:14;;;;;;;24.55;10.57;;;11.90;99.90;;;11.00;78.74;102767.69;4964555;28;20088;-78
2023/04/18 09:42:41;;;;;;;14.77;8.63;;;12.00;99.90;;;11.18;78.01;102764.72;4976998;28;20072;-77
2023/04/18 09:45:07;;;;;;;20.70;9.35;;;12.40;99.90;;;11.88;78.11;102764.41;4959602;28;20040;-78
2023/04/18 09:47:39;;;;;;;19.10;9.45;;;12.70;99.90;;;11.98;75.68;102773.88;4996263;28;20022;-78
2023/04/18 09:50:11;;;;;;;15.98;8.25;;;12.90;99.90;;;11.92;74.63;102762.56;4961026;28;20033;-78
2023/04/18 09:52:42;;;;;;;19.88;8.65;;;12.70;99.90;;;11.78;74.99;102768.09;4969913;28;20037;-77
2023/04/18 09:55:15;;;;;;;18.88;9.65;;;12.90;99.90;;;11.97;74.44;102758.94;4967101;28;20032;-78
2023/04/18 09:57:45;;;;;;;19.20;9.90;;;13.00;99.90;;;12.00;74.18;102763.28;4981551;28;20120;-79
2023/04/18 10:00:27;;;;;;;14.88;8.68;;;13.00;99.90;;;11.73;73.84;102759.38;4992534;28;20466;-79
2023/04/18 10:03:10;;;;;;;24.92;9.30;;;12.90;99.90;;;11.96;75.10;102762.47;4942008;28;20022;-78
2023/04/18 10:05:39;;;;;;;19.20;9.95;;;13.10;99.90;;;12.20;74.89;102762.88;4991439;28;20035;-79
2023/04/18 10:08:12;;;;;;;14.98;8.70;;;13.20;99.90;;;12.14;73.49;102765.63;5001536;28;20029;-78
2023/04/18 10:10:39;;;;;;;19.10;7.57;;;13.20;99.90;;;12.18;73.70;102768.22;4987149;28;20030;-78
2023/04/18 10:13:12;;;;;;;15.43;8.00;;;13.20;99.90;;;12.23;72.56;102762.81;4972676;28;20039;-78